createdAt,value
2018-11-03T00:00:44.998Z,5.40
2018-11-03T00:03:12.484Z,5.40
2018-11-03T00:05:40.020Z,5.40
2018-11-03T00:08:07.621Z,5.40
2018-11-03T00:10:35.277Z,5.30
2018-11-03T00:13:02.849Z,5.30
2018-11-03T00:15:30.255Z,5.30
2018-11-03T00:17:57.908Z,5.30
2018-11-03T00:20:25.505Z,5.20
2018-11-03T00:22:53.106Z,5.20
2018-11-03T00:25:20.616Z,5.20
2018-11-03T00:27:48.262Z,5.20
2018-11-03T00:30:15.930Z,5.20
2018-11-03T00:32:43.558Z,5.20
2018-11-03T00:35:11.358Z,5.20
2018-11-03T00:37:39.022Z,5.10
2018-11-03T00:40:09.775Z,5.10
2018-11-03T00:42:37.451Z,5.10
2018-11-03T00:45:06.244Z,5.00
2018-11-03T00:47:33.826Z,5.00
2018-11-03T00:50:01.412Z,5.00
2018-11-03T00:52:29.091Z,4.90
2018-11-03T00:54:56.904Z,4.90
2018-11-03T00:57:24.341Z,4.80
2018-11-03T00:59:51.870Z,4.80
2018-11-03T01:02:19.444Z,4.90
2018-11-03T01:04:47.070Z,4.80
2018-11-03T01:07:14.596Z,4.80
2018-11-03T01:09:42.159Z,4.80
2018-11-03T02:13:21.456Z,4.70
2018-11-03T02:15:49.009Z,4.00
2018-11-03T02:18:16.509Z,3.90
2018-11-03T02:20:44.029Z,3.80
2018-11-03T02:23:11.587Z,3.70
2018-11-03T02:25:39.207Z,3.40
2018-11-03T02:28:07.088Z,3.30
2018-11-03T02:30:34.622Z,3.30
2018-11-03T02:33:02.278Z,3.20
2018-11-03T02:35:29.985Z,3.10
2018-11-03T02:37:57.482Z,3.10
2018-11-03T02:40:25.005Z,3.00
2018-11-03T02:42:52.575Z,2.80
2018-11-03T02:45:20.201Z,2.70
2018-11-03T02:47:47.739Z,2.80
2018-11-03T02:50:15.385Z,2.90
2018-11-03T02:52:43.278Z,2.90
2018-11-03T02:55:10.989Z,2.90
2018-11-03T02:57:38.650Z,3.00
2018-11-03T03:00:07.342Z,3.10
2018-11-03T03:02:34.985Z,3.10
2018-11-03T03:05:02.715Z,3.10
2018-11-03T03:07:30.325Z,3.10
2018-11-03T03:09:57.889Z,3.10
2018-11-03T03:12:25.504Z,3.20
2018-11-03T03:14:53.215Z,3.20
2018-11-03T03:17:20.751Z,3.20
2018-11-03T03:19:48.282Z,3.20
2018-11-03T03:22:15.790Z,3.10
2018-11-03T03:24:43.344Z,3.10
2018-11-03T03:27:10.967Z,3.20
2018-11-03T03:29:38.671Z,3.20
2018-11-03T03:32:06.186Z,3.10
2018-11-03T03:34:33.907Z,3.10
2018-11-03T03:37:01.358Z,3.00
2018-11-03T03:39:28.886Z,3.00
2018-11-03T03:41:56.412Z,2.90
2018-11-03T03:44:24.096Z,2.90
2018-11-03T04:15:31.696Z,2.80
2018-11-03T04:17:59.514Z,2.80
2018-11-03T04:20:27.319Z,2.90
2018-11-03T04:22:54.851Z,2.90
2018-11-03T04:25:22.366Z,3.00
2018-11-03T04:27:50.595Z,3.00
2018-11-03T04:30:18.147Z,3.00
2018-11-03T04:32:46.926Z,3.00
2018-11-03T04:35:15.659Z,2.90
2018-11-03T04:37:43.992Z,2.90
2018-11-03T04:40:12.199Z,2.90
2018-11-03T04:42:40.183Z,2.90
2018-11-03T04:45:09.174Z,2.80
2018-11-03T04:47:36.910Z,2.90
2018-11-03T04:50:05.064Z,2.90
2018-11-03T04:52:32.689Z,2.80
2018-11-03T04:55:03.290Z,2.80
2018-11-03T04:57:31.705Z,2.80
2018-11-03T04:59:59.473Z,2.70
2018-11-03T05:02:27.066Z,2.70
2018-11-03T05:04:55.300Z,2.60
2018-11-03T05:07:22.873Z,2.50
2018-11-03T05:09:51.198Z,2.40
2018-11-03T05:12:19.238Z,2.40
2018-11-03T05:14:47.651Z,2.40
2018-11-03T05:17:15.309Z,2.40
2018-11-03T05:19:42.982Z,2.40
2018-11-03T05:22:10.672Z,2.40
2018-11-03T05:24:38.385Z,2.40
2018-11-03T05:27:05.988Z,2.50
2018-11-03T05:29:33.809Z,2.60
2018-11-03T05:32:01.501Z,2.60
2018-11-03T05:34:29.148Z,2.60
2018-11-03T05:36:58.354Z,2.60
2018-11-03T05:39:26.698Z,2.60
2018-11-03T05:41:56.506Z,2.60
2018-11-03T05:44:25.194Z,2.60
2018-11-03T05:46:55.847Z,2.60
2018-11-03T05:49:23.371Z,2.60
2018-11-03T05:51:51.661Z,2.70
2018-11-03T05:54:19.496Z,2.70
2018-11-03T05:56:47.193Z,2.60
2018-11-03T05:59:15.106Z,2.60
2018-11-03T06:01:43.198Z,2.60
2018-11-03T06:04:11.241Z,2.60
2018-11-03T06:06:38.974Z,2.60
2018-11-03T06:09:08.321Z,2.50
2018-11-03T06:11:35.963Z,2.50
2018-11-03T06:14:04.232Z,2.50
2018-11-03T06:16:32.111Z,2.50
2018-11-03T06:19:00.227Z,2.50
2018-11-03T06:21:28.188Z,2.50
2018-11-03T06:23:56.061Z,2.50
2018-11-03T06:26:24.028Z,2.50
2018-11-03T06:28:51.954Z,2.50
2018-11-03T06:31:20.253Z,2.50
2018-11-03T06:33:48.323Z,2.50
2018-11-03T06:36:16.310Z,2.50
2018-11-03T06:38:44.374Z,2.60
2018-11-03T06:41:13.174Z,2.50
2018-11-03T06:43:41.285Z,2.50
2018-11-03T06:46:10.171Z,2.60
2018-11-03T06:48:38.514Z,2.60
2018-11-03T06:51:06.841Z,2.60
2018-11-03T06:53:35.056Z,2.70
2018-11-03T06:56:03.650Z,2.80
2018-11-03T06:58:31.956Z,2.80
2018-11-03T07:01:00.342Z,2.90
2018-11-03T07:03:28.416Z,3.00
2018-11-03T07:05:56.678Z,3.10
2018-11-03T07:08:24.877Z,3.10
2018-11-03T07:10:53.119Z,3.30
2018-11-03T07:13:21.479Z,3.40
2018-11-03T07:15:50.060Z,3.60
2018-11-03T07:18:18.813Z,3.90
2018-11-03T07:20:47.460Z,4.20
2018-11-03T07:23:17.844Z,4.40
2018-11-03T07:25:46.637Z,4.80
2018-11-03T07:28:15.267Z,5.00
2018-11-03T07:30:44.035Z,5.00
2018-11-03T07:33:12.557Z,5.20
2018-11-03T07:35:40.599Z,5.80
2018-11-03T07:38:08.832Z,7.30
2018-11-03T07:40:37.862Z,9.10
2018-11-03T07:43:06.087Z,9.90
2018-11-03T07:45:34.930Z,10.20
2018-11-03T07:48:03.530Z,11.00
2018-11-03T07:50:31.765Z,11.10
2018-11-03T07:53:01.122Z,10.90
2018-11-03T07:55:31.345Z,9.90
2018-11-03T07:58:00.879Z,8.90
2018-11-03T08:00:29.005Z,8.20
2018-11-03T08:02:57.444Z,7.70
2018-11-03T08:05:25.962Z,7.20
2018-11-03T08:07:55.065Z,6.80
2018-11-03T08:10:25.633Z,6.80
2018-11-03T09:39:43.171Z,6.70
2018-11-03T09:42:11.636Z,13.40
2018-11-03T09:44:39.325Z,13.40
2018-11-03T09:47:07.008Z,13.00
2018-11-03T09:49:34.929Z,13.10
2018-11-03T09:52:03.427Z,12.60
2018-11-03T09:54:31.061Z,12.70
2018-11-03T09:56:59.064Z,12.80
2018-11-03T09:59:26.890Z,13.10
2018-11-03T10:01:54.546Z,13.10
2018-11-03T10:04:22.349Z,12.90
2018-11-03T10:06:50.141Z,13.20
2018-11-03T10:09:18.436Z,13.30
2018-11-03T10:11:46.280Z,13.50
2018-11-03T10:14:14.234Z,13.40
2018-11-03T10:16:42.074Z,13.10
2018-11-03T10:19:10.094Z,13.30
2018-11-03T10:21:38.092Z,13.60
2018-11-03T10:24:06.094Z,13.90
2018-11-03T10:26:34.153Z,13.90
2018-11-03T10:29:02.619Z,13.70
2018-11-03T10:31:30.692Z,13.50
2018-11-03T10:33:58.861Z,13.50
2018-11-03T10:36:27.120Z,13.60
2018-11-03T10:38:55.133Z,13.50
2018-11-03T10:41:23.422Z,13.30
2018-11-03T10:43:51.657Z,12.90
2018-11-03T10:46:20.459Z,13.30
2018-11-03T10:48:49.700Z,13.30
2018-11-03T10:51:17.867Z,13.10
2018-11-03T10:53:46.118Z,13.30
2018-11-03T10:56:14.049Z,13.60
2018-11-03T11:01:47.807Z,12.60
2018-11-03T11:04:21.296Z,12.20
2018-11-03T11:06:54.721Z,12.30
2018-11-03T11:09:28.245Z,12.10
2018-11-03T11:12:01.927Z,11.90
2018-11-03T11:14:30.207Z,11.90
2018-11-03T11:16:58.531Z,12.20
2018-11-03T11:19:26.637Z,12.90
2018-11-03T11:21:54.974Z,12.70
2018-11-03T11:24:24.227Z,13.20
2018-11-03T13:54:07.271Z,14.30
2018-11-03T13:56:35.343Z,9.90
2018-11-03T13:59:03.352Z,10.00
2018-11-03T14:01:31.358Z,10.00
2018-11-03T14:03:59.406Z,10.20
2018-11-03T14:06:27.759Z,10.20
2018-11-03T14:08:55.914Z,10.30
2018-11-03T14:11:23.773Z,10.40
2018-11-03T14:13:51.937Z,10.40
2018-11-03T14:16:20.401Z,10.50
2018-11-03T14:18:48.295Z,10.50
2018-11-03T14:21:16.565Z,10.50
2018-11-03T14:23:44.645Z,10.40
2018-11-03T14:26:13.216Z,10.40
2018-11-03T14:31:32.878Z,10.20
2018-11-03T14:34:03.700Z,10.00
2018-11-03T14:36:31.763Z,10.00
2018-11-03T14:39:00.105Z,9.90
2018-11-03T14:41:28.974Z,9.80
2018-11-03T14:43:57.002Z,9.80
2018-11-03T14:46:25.224Z,9.70
2018-11-03T14:48:53.319Z,9.60
2018-11-03T14:51:21.514Z,9.50
2018-11-03T14:53:49.596Z,9.50
2018-11-03T14:56:18.112Z,9.50
2018-11-03T14:58:46.312Z,9.50
2018-11-03T15:01:20.567Z,9.40
2018-11-03T15:03:48.673Z,9.40
2018-11-03T15:06:16.988Z,9.30
2018-11-03T15:08:45.167Z,9.30
2018-11-03T15:11:14.761Z,9.20
2018-11-03T15:13:43.125Z,9.10
2018-11-03T15:16:11.390Z,9.00
2018-11-03T15:18:39.556Z,9.00
2018-11-03T15:21:07.660Z,8.90
2018-11-03T15:23:35.901Z,8.90
2018-11-03T15:26:04.835Z,8.80
2018-11-03T15:28:33.658Z,8.80
2018-11-03T15:31:02.810Z,8.80
2018-11-03T15:33:31.242Z,8.80
2018-11-03T15:35:59.476Z,8.80
2018-11-03T15:38:27.579Z,8.80
2018-11-03T15:40:55.394Z,8.80
2018-11-03T15:43:23.797Z,8.70
2018-11-03T15:45:51.847Z,8.60
2018-11-03T15:48:19.734Z,8.50
2018-11-03T15:50:47.753Z,8.40
2018-11-03T15:53:17.780Z,8.20
2018-11-03T15:57:02.897Z,8.10
2018-11-03T15:59:30.951Z,8.00
2018-11-03T16:02:04.655Z,7.80
2018-11-03T16:04:32.774Z,7.80
2018-11-03T16:07:00.772Z,7.70
2018-11-03T16:09:28.860Z,7.70
2018-11-03T16:11:56.698Z,7.50
2018-11-03T16:14:24.814Z,7.40
2018-11-03T16:16:52.836Z,7.20
2018-11-03T16:19:20.701Z,7.20
2018-11-03T16:21:48.544Z,7.00
2018-11-03T16:24:16.502Z,7.00
2018-11-03T16:26:44.365Z,7.00
2018-11-03T16:29:12.191Z,6.90
2018-11-03T16:31:47.293Z,6.90
2018-11-03T16:34:15.346Z,6.70
2018-11-03T16:36:44.586Z,6.60
2018-11-03T16:39:12.600Z,6.50
2018-11-03T16:41:40.365Z,6.50
2018-11-03T16:44:08.410Z,6.50
2018-11-03T16:46:36.269Z,6.40
2018-11-03T16:49:09.033Z,6.30
2018-11-03T16:51:37.173Z,6.30
2018-11-03T16:54:05.132Z,6.20
2018-11-03T16:56:33.255Z,6.20
2018-11-03T16:59:01.308Z,6.20
2018-11-03T17:01:29.299Z,6.20
2018-11-03T17:03:57.138Z,6.10
2018-11-03T17:06:25.075Z,6.00
2018-11-03T17:08:52.985Z,6.00
2018-11-03T17:11:21.101Z,5.90
2018-11-03T17:13:49.045Z,5.80
2018-11-03T17:16:16.913Z,5.70
2018-11-03T17:18:44.902Z,5.70
2018-11-03T17:21:13.041Z,5.60
2018-11-03T17:23:41.099Z,5.60
2018-11-03T20:10:31.033Z,5.50
2018-11-03T20:13:00.564Z,2.60
2018-11-03T20:15:45.131Z,2.60
2018-11-03T20:18:14.290Z,2.50
2018-11-03T20:21:23.709Z,2.50
2018-11-03T20:23:55.612Z,2.50
2018-11-03T20:26:31.351Z,2.50
2018-11-03T20:29:00.335Z,2.50
2018-11-03T20:31:30.165Z,2.50
2018-11-03T20:34:04.267Z,2.50
2018-11-03T20:36:37.968Z,2.50
2018-11-03T20:45:23.973Z,2.60
2018-11-03T20:47:52.909Z,2.50
2018-11-03T20:50:22.090Z,2.60
2018-11-03T20:53:41.609Z,2.60
2018-11-03T20:56:15.777Z,2.60
2018-11-03T20:59:00.814Z,2.60
2018-11-03T21:01:30.525Z,2.60
2018-11-03T21:04:01.480Z,2.60
2018-11-03T21:06:31.167Z,2.60
2018-11-03T21:09:16.890Z,2.60
2018-11-03T21:11:45.991Z,2.60
2018-11-03T21:14:15.087Z,2.60
2018-11-03T21:19:56.709Z,2.50
2018-11-03T21:26:30.389Z,2.60
2018-11-03T21:32:30.664Z,2.50
2018-11-03T21:34:58.197Z,2.50
2018-11-03T21:37:25.785Z,2.40
2018-11-03T21:39:53.399Z,2.50
2018-11-03T21:42:21.072Z,2.40
2018-11-03T21:44:48.604Z,2.40
2018-11-03T21:47:16.349Z,2.40
2018-11-03T21:49:45.001Z,2.40
2018-11-03T21:52:14.169Z,2.40
2018-11-03T21:54:42.022Z,2.40
2018-11-03T21:57:11.761Z,2.40
2018-11-03T21:59:40.755Z,2.40
2018-11-03T22:02:08.423Z,2.40
2018-11-03T22:04:36.249Z,2.40
2018-11-03T22:07:03.990Z,2.40
2018-11-03T22:09:31.475Z,2.30
2018-11-03T22:11:59.220Z,2.30
2018-11-03T22:14:26.781Z,2.40
2018-11-03T22:16:54.302Z,2.30
2018-11-03T22:19:21.816Z,2.30
2018-11-03T22:21:49.666Z,2.40
2018-11-03T22:24:17.127Z,2.30
2018-11-03T22:26:45.229Z,2.30
2018-11-03T22:29:12.871Z,2.30
2018-11-03T22:31:40.443Z,2.30
2018-11-03T22:34:08.051Z,2.30
2018-11-03T22:36:35.476Z,2.30
2018-11-03T22:39:03.599Z,2.30
2018-11-03T22:41:31.149Z,2.30
2018-11-03T22:43:58.695Z,2.40
2018-11-03T22:46:26.198Z,2.40
2018-11-03T22:48:53.851Z,2.40
2018-11-03T22:51:21.655Z,2.40
2018-11-03T22:53:52.000Z,2.40
2018-11-03T22:56:19.704Z,2.40
2018-11-03T22:58:47.344Z,2.30
2018-11-03T23:01:14.875Z,2.40
2018-11-03T23:03:42.363Z,2.30
2018-11-03T23:06:09.885Z,2.30
2018-11-03T23:08:37.477Z,2.30
2018-11-03T23:11:05.106Z,2.30
2018-11-03T23:13:32.654Z,2.30
2018-11-03T23:16:00.091Z,2.30
2018-11-03T23:18:27.628Z,2.30
2018-11-03T23:20:55.100Z,2.30
2018-11-03T23:23:22.616Z,2.30
2018-11-03T23:25:50.071Z,2.30
2018-11-03T23:28:17.464Z,2.30
2018-11-03T23:30:45.006Z,2.30
2018-11-03T23:33:12.496Z,2.30
2018-11-03T23:35:40.142Z,2.30
2018-11-03T23:38:07.622Z,2.30
2018-11-03T23:40:35.073Z,2.30
2018-11-03T23:43:02.507Z,2.30
2018-11-03T23:45:30.030Z,2.40
2018-11-03T23:47:57.470Z,2.40
2018-11-03T23:50:25.035Z,2.50
2018-11-03T23:52:52.532Z,2.50
2018-11-03T23:55:20.138Z,2.50
2018-11-03T23:57:47.839Z,2.50
